sensor_id;sensor_type;location;lat;lon;timestamp;P1;durP1;ratioP1;P2;durP2;ratioP2
55312;SDS011;46892;45.668;11.756;2022-08-03T00:01:56;1.35;;;0.88;;
55312;SDS011;46892;45.668;11.756;2022-08-03T00:04:22;1.05;;;0.82;;
55312;SDS011;46892;45.668;11.756;2022-08-03T00:06:48;1.42;;;1.00;;
55312;SDS011;46892;45.668;11.756;2022-08-03T00:09:14;2.20;;;1.20;;
55312;SDS011;46892;45.668;11.756;2022-08-03T00:11:39;2.28;;;1.10;;
55312;SDS011;46892;45.668;11.756;2022-08-03T00:14:05;3.83;;;1.27;;
55312;SDS011;46892;45.668;11.756;2022-08-03T00:16:31;1.27;;;1.03;;
55312;SDS011;46892;45.668;11.756;2022-08-03T00:18:57;1.50;;;1.00;;
55312;SDS011;46892;45.668;11.756;2022-08-03T00:21:23;2.23;;;1.13;;
55312;SDS011;46892;45.668;11.756;2022-08-03T00:23:48;2.10;;;1.30;;
55312;SDS011;46892;45.668;11.756;2022-08-03T00:26:14;1.35;;;1.15;;
55312;SDS011;46892;45.668;11.756;2022-08-03T00:28:40;1.90;;;1.13;;
55312;SDS011;46892;45.668;11.756;2022-08-03T00:31:06;2.73;;;1.10;;
55312;SDS011;46892;45.668;11.756;2022-08-03T00:33:32;2.10;;;1.03;;
55312;SDS011;46892;45.668;11.756;2022-08-03T00:35:57;2.10;;;1.10;;
55312;SDS011;46892;45.668;11.756;2022-08-03T00:38:23;1.60;;;1.10;;
55312;SDS011;46892;45.668;11.756;2022-08-03T00:40:49;3.13;;;1.20;;
55312;SDS011;46892;45.668;11.756;2022-08-03T00:43:15;3.78;;;1.20;;
55312;SDS011;46892;45.668;11.756;2022-08-03T00:45:40;2.03;;;1.30;;
55312;SDS011;46892;45.668;11.756;2022-08-03T00:48:08;1.83;;;1.27;;
55312;SDS011;46892;45.668;11.756;2022-08-03T00:50:38;2.50;;;1.47;;
55312;SDS011;46892;45.668;11.756;2022-08-03T00:53:06;2.47;;;1.20;;
55312;SDS011;46892;45.668;11.756;2022-08-03T00:55:37;2.47;;;1.10;;
55312;SDS011;46892;45.668;11.756;2022-08-03T00:58:03;1.63;;;1.20;;
55312;SDS011;46892;45.668;11.756;2022-08-03T01:00:31;2.50;;;1.33;;
55312;SDS011;46892;45.668;11.756;2022-08-03T01:02:57;3.13;;;1.40;;
55312;SDS011;46892;45.668;11.756;2022-08-03T01:05:23;4.30;;;1.30;;
55312;SDS011;46892;45.668;11.756;2022-08-03T01:08:07;2.93;;;1.50;;
55312;SDS011;46892;45.668;11.756;2022-08-03T01:11:05;1.47;;;0.90;;
55312;SDS011;46892;45.668;11.756;2022-08-03T01:19:24;4.50;;;1.40;;
55312;SDS011;46892;45.668;11.756;2022-08-03T01:24:51;5.37;;;1.40;;
55312;SDS011;46892;45.668;11.756;2022-08-03T01:27:42;6.80;;;4.20;;
55312;SDS011;46892;45.668;11.756;2022-08-03T01:30:32;8.30;;;5.87;;
55312;SDS011;46892;45.668;11.756;2022-08-03T01:33:11;6.33;;;3.90;;
55312;SDS011;46892;45.668;11.756;2022-08-03T01:36:02;5.10;;;2.77;;
55312;SDS011;46892;45.668;11.756;2022-08-03T01:38:31;4.33;;;1.80;;
55312;SDS011;46892;45.668;11.756;2022-08-03T01:41:01;3.20;;;2.00;;
55312;SDS011;46892;45.668;11.756;2022-08-03T01:43:31;3.23;;;1.57;;
55312;SDS011;46892;45.668;11.756;2022-08-03T01:45:58;2.70;;;1.53;;
55312;SDS011;46892;45.668;11.756;2022-08-03T01:48:25;3.43;;;1.70;;
55312;SDS011;46892;45.668;11.756;2022-08-03T01:50:51;4.80;;;1.70;;
55312;SDS011;46892;45.668;11.756;2022-08-03T01:53:21;5.87;;;1.90;;
55312;SDS011;46892;45.668;11.756;2022-08-03T01:55:48;12.47;;;2.60;;
55312;SDS011;46892;45.668;11.756;2022-08-03T02:00:44;11.10;;;3.37;;
55312;SDS011;46892;45.668;11.756;2022-08-03T02:03:12;5.53;;;1.83;;
55312;SDS011;46892;45.668;11.756;2022-08-03T02:05:39;3.67;;;2.10;;
55312;SDS011;46892;45.668;11.756;2022-08-03T02:08:07;10.30;;;2.37;;
55312;SDS011;46892;45.668;11.756;2022-08-03T02:10:36;7.30;;;2.15;;
55312;SDS011;46892;45.668;11.756;2022-08-03T02:13:06;16.07;;;3.30;;
55312;SDS011;46892;45.668;11.756;2022-08-03T02:15:32;9.43;;;2.27;;
55312;SDS011;46892;45.668;11.756;2022-08-03T02:17:59;9.57;;;1.87;;
55312;SDS011;46892;45.668;11.756;2022-08-03T02:20:27;11.93;;;2.77;;
55312;SDS011;46892;45.668;11.756;2022-08-03T02:22:56;11.82;;;2.88;;
55312;SDS011;46892;45.668;11.756;2022-08-03T02:25:22;4.87;;;1.83;;
55312;SDS011;46892;45.668;11.756;2022-08-03T02:27:51;11.23;;;2.03;;
55312;SDS011;46892;45.668;11.756;2022-08-03T02:30:35;5.50;;;1.60;;
55312;SDS011;46892;45.668;11.756;2022-08-03T02:33:03;4.30;;;1.43;;
55312;SDS011;46892;45.668;11.756;2022-08-03T02:35:31;5.03;;;1.63;;
55312;SDS011;46892;45.668;11.756;2022-08-03T02:38:01;4.27;;;1.17;;
55312;SDS011;46892;45.668;11.756;2022-08-03T02:40:29;4.03;;;1.37;;
55312;SDS011;46892;45.668;11.756;2022-08-03T02:43:00;4.27;;;1.10;;
55312;SDS011;46892;45.668;11.756;2022-08-03T02:45:28;5.00;;;1.67;;
55312;SDS011;46892;45.668;11.756;2022-08-03T02:47:59;9.10;;;2.17;;
55312;SDS011;46892;45.668;11.756;2022-08-03T02:50:29;5.30;;;1.45;;
55312;SDS011;46892;45.668;11.756;2022-08-03T02:52:57;10.10;;;2.57;;
55312;SDS011;46892;45.668;11.756;2022-08-03T02:55:25;9.60;;;1.90;;
55312;SDS011;46892;45.668;11.756;2022-08-03T02:57:52;8.10;;;1.30;;
55312;SDS011;46892;45.668;11.756;2022-08-03T03:00:19;4.10;;;1.40;;
55312;SDS011;46892;45.668;11.756;2022-08-03T03:02:50;5.40;;;1.60;;
55312;SDS011;46892;45.668;11.756;2022-08-03T03:05:17;7.50;;;1.60;;
55312;SDS011;46892;45.668;11.756;2022-08-03T03:07:43;3.57;;;1.40;;
55312;SDS011;46892;45.668;11.756;2022-08-03T03:10:11;7.50;;;1.67;;
55312;SDS011;46892;45.668;11.756;2022-08-03T03:12:36;4.37;;;1.60;;
55312;SDS011;46892;45.668;11.756;2022-08-03T03:15:06;9.23;;;1.80;;
55312;SDS011;46892;45.668;11.756;2022-08-03T03:17:32;12.23;;;1.90;;
55312;SDS011;46892;45.668;11.756;2022-08-03T03:20:01;12.67;;;1.93;;
55312;SDS011;46892;45.668;11.756;2022-08-03T03:22:27;9.10;;;1.60;;
55312;SDS011;46892;45.668;11.756;2022-08-03T03:24:55;8.37;;;1.70;;
55312;SDS011;46892;45.668;11.756;2022-08-03T03:27:21;11.23;;;2.13;;
55312;SDS011;46892;45.668;11.756;2022-08-03T03:29:47;5.93;;;1.50;;
55312;SDS011;46892;45.668;11.756;2022-08-03T03:32:13;5.60;;;1.80;;
55312;SDS011;46892;45.668;11.756;2022-08-03T03:34:39;6.93;;;1.70;;
55312;SDS011;46892;45.668;11.756;2022-08-03T03:37:06;4.47;;;1.40;;
55312;SDS011;46892;45.668;11.756;2022-08-03T03:39:32;3.33;;;1.60;;
55312;SDS011;46892;45.668;11.756;2022-08-03T03:41:58;2.13;;;1.30;;
55312;SDS011;46892;45.668;11.756;2022-08-03T03:44:25;4.23;;;1.20;;
55312;SDS011;46892;45.668;11.756;2022-08-03T03:49:23;6.73;;;1.40;;
55312;SDS011;46892;45.668;11.756;2022-08-03T03:51:53;3.03;;;1.20;;
55312;SDS011;46892;45.668;11.756;2022-08-03T03:54:19;5.00;;;1.33;;
55312;SDS011;46892;45.668;11.756;2022-08-03T03:56:45;2.53;;;1.27;;
55312;SDS011;46892;45.668;11.756;2022-08-03T03:59:12;2.87;;;1.47;;
55312;SDS011;46892;45.668;11.756;2022-08-03T04:01:38;6.10;;;1.20;;
55312;SDS011;46892;45.668;11.756;2022-08-03T04:04:03;7.17;;;1.33;;
55312;SDS011;46892;45.668;11.756;2022-08-03T04:06:48;5.60;;;1.50;;
55312;SDS011;46892;45.668;11.756;2022-08-03T04:09:34;8.73;;;1.70;;
55312;SDS011;46892;45.668;11.756;2022-08-03T04:12:21;12.70;;;2.33;;
55312;SDS011;46892;45.668;11.756;2022-08-03T04:14:50;7.40;;;1.77;;
55312;SDS011;46892;45.668;11.756;2022-08-03T04:17:20;11.80;;;1.70;;
55312;SDS011;46892;45.668;11.756;2022-08-03T04:19:51;7.72;;;1.40;;
55312;SDS011;46892;45.668;11.756;2022-08-03T04:22:19;7.30;;;1.67;;
55312;SDS011;46892;45.668;11.756;2022-08-03T04:24:52;11.65;;;2.00;;
55312;SDS011;46892;45.668;11.756;2022-08-03T04:27:23;8.60;;;1.70;;
55312;SDS011;46892;45.668;11.756;2022-08-03T04:29:52;11.00;;;1.80;;
55312;SDS011;46892;45.668;11.756;2022-08-03T04:32:20;7.77;;;1.73;;
55312;SDS011;46892;45.668;11.756;2022-08-03T04:34:49;4.50;;;1.30;;
55312;SDS011;46892;45.668;11.756;2022-08-03T04:37:29;4.07;;;1.33;;
55312;SDS011;46892;45.668;11.756;2022-08-03T04:40:00;6.67;;;1.43;;
55312;SDS011;46892;45.668;11.756;2022-08-03T04:42:29;6.65;;;1.40;;
55312;SDS011;46892;45.668;11.756;2022-08-03T04:44:57;6.23;;;1.60;;
55312;SDS011;46892;45.668;11.756;2022-08-03T04:47:23;13.13;;;1.90;;
55312;SDS011;46892;45.668;11.756;2022-08-03T04:49:49;10.07;;;1.73;;
55312;SDS011;46892;45.668;11.756;2022-08-03T04:52:15;6.97;;;1.60;;
55312;SDS011;46892;45.668;11.756;2022-08-03T04:54:42;5.90;;;1.87;;
55312;SDS011;46892;45.668;11.756;2022-08-03T04:57:09;4.30;;;1.60;;
55312;SDS011;46892;45.668;11.756;2022-08-03T04:59:35;3.90;;;1.20;;
55312;SDS011;46892;45.668;11.756;2022-08-03T05:02:01;2.77;;;1.40;;
55312;SDS011;46892;45.668;11.756;2022-08-03T05:04:27;6.47;;;1.43;;
55312;SDS011;46892;45.668;11.756;2022-08-03T05:06:52;5.47;;;1.43;;
55312;SDS011;46892;45.668;11.756;2022-08-03T05:09:18;3.63;;;1.30;;
55312;SDS011;46892;45.668;11.756;2022-08-03T05:11:44;3.03;;;1.23;;
55312;SDS011;46892;45.668;11.756;2022-08-03T05:14:10;3.17;;;1.30;;
55312;SDS011;46892;45.668;11.756;2022-08-03T05:16:35;3.90;;;1.13;;
55312;SDS011;46892;45.668;11.756;2022-08-03T05:19:01;5.47;;;1.77;;
55312;SDS011;46892;45.668;11.756;2022-08-03T05:21:27;3.58;;;1.35;;
55312;SDS011;46892;45.668;11.756;2022-08-03T05:23:53;2.70;;;1.10;;
55312;SDS011;46892;45.668;11.756;2022-08-03T05:26:18;3.90;;;1.10;;
55312;SDS011;46892;45.668;11.756;2022-08-03T05:28:47;4.85;;;1.10;;
55312;SDS011;46892;45.668;11.756;2022-08-03T05:31:12;3.70;;;1.37;;
55312;SDS011;46892;45.668;11.756;2022-08-03T05:33:38;3.80;;;1.13;;
55312;SDS011;46892;45.668;11.756;2022-08-03T05:36:04;5.13;;;1.70;;
55312;SDS011;46892;45.668;11.756;2022-08-03T05:38:30;4.30;;;1.20;;
55312;SDS011;46892;45.668;11.756;2022-08-03T05:40:56;7.10;;;1.33;;
55312;SDS011;46892;45.668;11.756;2022-08-03T05:43:22;3.75;;;1.23;;
55312;SDS011;46892;45.668;11.756;2022-08-03T05:45:48;6.03;;;1.45;;
55312;SDS011;46892;45.668;11.756;2022-08-03T05:48:13;7.05;;;1.35;;
55312;SDS011;46892;45.668;11.756;2022-08-03T05:50:39;5.22;;;1.30;;
55312;SDS011;46892;45.668;11.756;2022-08-03T05:53:05;3.85;;;1.33;;
